Carl Junction, Missouri
Current Conditions -  °F | °C
As of 5:53 AM on Friday 24 Oct 2014 (Local Time) from KJLN Reporting Station
Scattered Clouds Scattered Clouds  
Wind Chill: 52°   Ceiling: Unl
Heat Index: 52°   Visibility: 8mi
Dew Point: 50°   Wind: 6mph
Humidity: 93%   Direction: 170°S
Pressure: 30.11"   Gusts: NA
Location:  37.18°N, 94.57°W
Report Text: KJLN 241053Z 17005KT 8SM SCT040 11/10 A3011 RMK AO2 SLP194 T01110100
Loading
Personal Weather Stations






























Interactive Weather Map
Tropical Storm Tracking
New forecast layout! Learn more

10-Day Weather Forecast

Advertisements
Track Severe Weather on mobile